sensor_id;sensor_type;location;lat;lon;timestamp;temperature;humidity
83098;DHT22;72971;47.204;8.582;2023-09-30T00:03:50;23.40;52.00
83098;DHT22;72971;47.204;8.582;2023-09-30T00:08:52;23.40;52.00
83098;DHT22;72971;47.204;8.582;2023-09-30T00:13:55;23.40;52.00
83098;DHT22;72971;47.204;8.582;2023-09-30T00:18:57;23.30;52.00
83098;DHT22;72971;47.204;8.582;2023-09-30T00:24:00;23.30;52.00
83098;DHT22;72971;47.204;8.582;2023-09-30T00:29:02;23.30;51.90
83098;DHT22;72971;47.204;8.582;2023-09-30T00:34:06;23.30;52.00
83098;DHT22;72971;47.204;8.582;2023-09-30T00:39:10;23.30;51.90
83098;DHT22;72971;47.204;8.582;2023-09-30T00:44:12;23.30;51.90
83098;DHT22;72971;47.204;8.582;2023-09-30T00:49:15;23.30;52.10
83098;DHT22;72971;47.204;8.582;2023-09-30T00:54:19;23.30;51.90
83098;DHT22;72971;47.204;8.582;2023-09-30T00:59:23;23.30;51.90
83098;DHT22;72971;47.204;8.582;2023-09-30T01:04:28;23.30;51.90
83098;DHT22;72971;47.204;8.582;2023-09-30T01:09:37;23.30;52.00
83098;DHT22;72971;47.204;8.582;2023-09-30T01:14:36;23.30;51.90
83098;DHT22;72971;47.204;8.582;2023-09-30T01:19:43;23.30;51.90
83098;DHT22;72971;47.204;8.582;2023-09-30T01:24:46;23.30;52.00
83098;DHT22;72971;47.204;8.582;2023-09-30T01:29:49;23.30;52.00
83098;DHT22;72971;47.204;8.582;2023-09-30T01:34:52;23.30;51.90
83098;DHT22;72971;47.204;8.582;2023-09-30T01:39:54;23.30;52.00
83098;DHT22;72971;47.204;8.582;2023-09-30T01:44:57;23.30;51.90
83098;DHT22;72971;47.204;8.582;2023-09-30T01:49:59;23.30;52.00
83098;DHT22;72971;47.204;8.582;2023-09-30T01:55:02;23.30;52.00
83098;DHT22;72971;47.204;8.582;2023-09-30T02:00:05;23.30;52.00
83098;DHT22;72971;47.204;8.582;2023-09-30T02:05:09;23.30;51.90
83098;DHT22;72971;47.204;8.582;2023-09-30T02:10:12;23.30;51.90
83098;DHT22;72971;47.204;8.582;2023-09-30T02:15:14;23.30;52.00
83098;DHT22;72971;47.204;8.582;2023-09-30T02:20:17;23.30;52.10
83098;DHT22;72971;47.204;8.582;2023-09-30T02:25:25;23.30;52.00
83098;DHT22;72971;47.204;8.582;2023-09-30T02:30:27;23.30;52.00
83098;DHT22;72971;47.204;8.582;2023-09-30T02:35:30;23.30;52.00
83098;DHT22;72971;47.204;8.582;2023-09-30T02:40:32;23.30;52.00
83098;DHT22;72971;47.204;8.582;2023-09-30T02:45:35;23.30;52.10
83098;DHT22;72971;47.204;8.582;2023-09-30T02:50:37;23.20;52.00
83098;DHT22;72971;47.204;8.582;2023-09-30T02:55:42;23.30;52.10
83098;DHT22;72971;47.204;8.582;2023-09-30T03:00:49;23.30;52.10
83098;DHT22;72971;47.204;8.582;2023-09-30T03:05:53;23.30;52.00
83098;DHT22;72971;47.204;8.582;2023-09-30T03:10:55;23.30;52.00
83098;DHT22;72971;47.204;8.582;2023-09-30T03:15:58;23.20;52.00
83098;DHT22;72971;47.204;8.582;2023-09-30T03:21:02;23.30;52.00
83098;DHT22;72971;47.204;8.582;2023-09-30T03:26:06;23.30;52.10
83098;DHT22;72971;47.204;8.582;2023-09-30T03:31:11;23.30;52.00
83098;DHT22;72971;47.204;8.582;2023-09-30T03:36:13;23.20;52.00
83098;DHT22;72971;47.204;8.582;2023-09-30T03:41:17;23.30;52.00
83098;DHT22;72971;47.204;8.582;2023-09-30T03:46:21;23.30;52.00
83098;DHT22;72971;47.204;8.582;2023-09-30T03:51:23;23.20;52.00
83098;DHT22;72971;47.204;8.582;2023-09-30T03:56:26;23.30;52.10
83098;DHT22;72971;47.204;8.582;2023-09-30T04:01:29;23.20;52.00
83098;DHT22;72971;47.204;8.582;2023-09-30T04:06:32;23.20;52.20
83098;DHT22;72971;47.204;8.582;2023-09-30T04:11:35;23.20;52.00
83098;DHT22;72971;47.204;8.582;2023-09-30T04:16:38;23.20;52.00
83098;DHT22;72971;47.204;8.582;2023-09-30T04:21:41;23.20;52.00
83098;DHT22;72971;47.204;8.582;2023-09-30T04:26:44;23.20;52.10
83098;DHT22;72971;47.204;8.582;2023-09-30T04:31:47;23.20;52.10
83098;DHT22;72971;47.204;8.582;2023-09-30T04:36:50;23.20;52.00
83098;DHT22;72971;47.204;8.582;2023-09-30T04:41:53;23.20;52.10
83098;DHT22;72971;47.204;8.582;2023-09-30T04:46:57;23.20;52.10
83098;DHT22;72971;47.204;8.582;2023-09-30T04:52:01;23.20;52.00
83098;DHT22;72971;47.204;8.582;2023-09-30T04:57:03;23.20;52.00
83098;DHT22;72971;47.204;8.582;2023-09-30T05:02:06;23.20;52.00
83098;DHT22;72971;47.204;8.582;2023-09-30T05:07:09;23.20;52.10
83098;DHT22;72971;47.204;8.582;2023-09-30T05:12:14;23.20;52.10
83098;DHT22;72971;47.204;8.582;2023-09-30T05:17:17;23.20;52.10
83098;DHT22;72971;47.204;8.582;2023-09-30T05:22:20;23.20;52.10
83098;DHT22;72971;47.204;8.582;2023-09-30T05:27:24;23.20;52.00
83098;DHT22;72971;47.204;8.582;2023-09-30T05:32:26;23.20;52.10
83098;DHT22;72971;47.204;8.582;2023-09-30T05:37:29;23.20;52.00
83098;DHT22;72971;47.204;8.582;2023-09-30T05:42:32;23.20;52.10
83098;DHT22;72971;47.204;8.582;2023-09-30T05:47:36;23.20;52.10
83098;DHT22;72971;47.204;8.582;2023-09-30T05:52:39;23.20;52.10
83098;DHT22;72971;47.204;8.582;2023-09-30T05:57:42;23.20;52.10
83098;DHT22;72971;47.204;8.582;2023-09-30T06:02:45;23.20;52.10
83098;DHT22;72971;47.204;8.582;2023-09-30T06:07:48;23.20;52.10
83098;DHT22;72971;47.204;8.582;2023-09-30T06:12:52;23.20;52.10
83098;DHT22;72971;47.204;8.582;2023-09-30T06:17:58;23.20;52.10
83098;DHT22;72971;47.204;8.582;2023-09-30T06:23:01;23.20;52.10
83098;DHT22;72971;47.204;8.582;2023-09-30T06:28:04;23.20;52.10
83098;DHT22;72971;47.204;8.582;2023-09-30T06:33:08;23.20;52.10
83098;DHT22;72971;47.204;8.582;2023-09-30T06:38:12;23.20;52.10
83098;DHT22;72971;47.204;8.582;2023-09-30T06:43:15;23.20;52.10
83098;DHT22;72971;47.204;8.582;2023-09-30T06:48:18;23.20;52.10
83098;DHT22;72971;47.204;8.582;2023-09-30T06:53:20;23.20;52.10
83098;DHT22;72971;47.204;8.582;2023-09-30T06:58:25;23.20;52.00
83098;DHT22;72971;47.204;8.582;2023-09-30T07:03:28;23.20;52.00
83098;DHT22;72971;47.204;8.582;2023-09-30T07:08:31;23.20;52.10
83098;DHT22;72971;47.204;8.582;2023-09-30T07:13:34;23.20;52.10
83098;DHT22;72971;47.204;8.582;2023-09-30T07:18:37;23.20;52.00
83098;DHT22;72971;47.204;8.582;2023-09-30T07:23:40;23.20;52.10
83098;DHT22;72971;47.204;8.582;2023-09-30T07:28:42;23.20;52.10
83098;DHT22;72971;47.204;8.582;2023-09-30T07:33:45;23.20;52.00
83098;DHT22;72971;47.204;8.582;2023-09-30T07:38:47;23.20;52.10
83098;DHT22;72971;47.204;8.582;2023-09-30T07:43:50;23.20;52.00
83098;DHT22;72971;47.204;8.582;2023-09-30T07:48:52;23.20;52.00
83098;DHT22;72971;47.204;8.582;2023-09-30T07:53:56;23.20;52.00
83098;DHT22;72971;47.204;8.582;2023-09-30T07:58:59;23.20;52.10
83098;DHT22;72971;47.204;8.582;2023-09-30T08:04:01;23.20;52.10
83098;DHT22;72971;47.204;8.582;2023-09-30T08:09:04;23.20;52.00
83098;DHT22;72971;47.204;8.582;2023-09-30T08:14:08;23.20;52.00
83098;DHT22;72971;47.204;8.582;2023-09-30T08:19:11;23.20;52.00
83098;DHT22;72971;47.204;8.582;2023-09-30T08:24:13;23.20;52.00
83098;DHT22;72971;47.204;8.582;2023-09-30T08:29:16;23.30;51.90
83098;DHT22;72971;47.204;8.582;2023-09-30T08:34:20;23.20;51.90
83098;DHT22;72971;47.204;8.582;2023-09-30T08:39:24;23.20;51.90
83098;DHT22;72971;47.204;8.582;2023-09-30T08:44:28;23.20;52.00
83098;DHT22;72971;47.204;8.582;2023-09-30T08:49:38;23.20;51.90
83098;DHT22;72971;47.204;8.582;2023-09-30T08:54:37;23.30;51.90
83098;DHT22;72971;47.204;8.582;2023-09-30T08:59:41;23.30;51.90
83098;DHT22;72971;47.204;8.582;2023-09-30T09:04:45;23.30;51.90
83098;DHT22;72971;47.204;8.582;2023-09-30T09:10:05;23.30;51.80
83098;DHT22;72971;47.204;8.582;2023-09-30T09:15:20;23.30;51.80
83098;DHT22;72971;47.204;8.582;2023-09-30T09:20:25;23.30;51.80
83098;DHT22;72971;47.204;8.582;2023-09-30T09:25:27;23.30;51.70
83098;DHT22;72971;47.204;8.582;2023-09-30T09:30:30;23.30;51.70
83098;DHT22;72971;47.204;8.582;2023-09-30T09:35:34;23.40;51.70
83098;DHT22;72971;47.204;8.582;2023-09-30T09:40:38;23.40;51.70
83098;DHT22;72971;47.204;8.582;2023-09-30T09:45:43;23.40;51.70
83098;DHT22;72971;47.204;8.582;2023-09-30T09:50:47;23.40;51.70
83098;DHT22;72971;47.204;8.582;2023-09-30T09:55:52;23.40;51.30
83098;DHT22;72971;47.204;8.582;2023-09-30T10:00:56;23.40;51.70
83098;DHT22;72971;47.204;8.582;2023-09-30T10:06:00;23.40;51.60
83098;DHT22;72971;47.204;8.582;2023-09-30T10:11:04;23.40;51.60
83098;DHT22;72971;47.204;8.582;2023-09-30T10:16:06;23.40;51.60
83098;DHT22;72971;47.204;8.582;2023-09-30T10:21:09;23.40;51.60
83098;DHT22;72971;47.204;8.582;2023-09-30T10:26:13;23.40;51.60
83098;DHT22;72971;47.204;8.582;2023-09-30T10:31:19;23.40;51.60
83098;DHT22;72971;47.204;8.582;2023-09-30T10:36:38;23.40;51.60
83098;DHT22;72971;47.204;8.582;2023-09-30T10:46:50;23.40;51.50
83098;DHT22;72971;47.204;8.582;2023-09-30T10:51:57;23.40;51.60
83098;DHT22;72971;47.204;8.582;2023-09-30T10:57:01;23.40;51.50
83098;DHT22;72971;47.204;8.582;2023-09-30T11:02:18;23.50;51.50
83098;DHT22;72971;47.204;8.582;2023-09-30T11:07:10;23.50;51.50
83098;DHT22;72971;47.204;8.582;2023-09-30T11:12:16;23.50;51.50
83098;DHT22;72971;47.204;8.582;2023-09-30T11:17:21;23.50;51.40
83098;DHT22;72971;47.204;8.582;2023-09-30T11:22:25;23.50;51.40
83098;DHT22;72971;47.204;8.582;2023-09-30T11:27:29;23.50;51.40
83098;DHT22;72971;47.204;8.582;2023-09-30T11:32:34;23.50;51.40
83098;DHT22;72971;47.204;8.582;2023-09-30T11:37:36;23.50;51.30
83098;DHT22;72971;47.204;8.582;2023-09-30T11:42:39;23.60;51.30
83098;DHT22;72971;47.204;8.582;2023-09-30T11:47:44;23.60;51.30
83098;DHT22;72971;47.204;8.582;2023-09-30T11:52:46;23.60;51.30
83098;DHT22;72971;47.204;8.582;2023-09-30T11:57:49;23.60;51.60
83098;DHT22;72971;47.204;8.582;2023-09-30T12:02:53;23.60;51.20
83098;DHT22;72971;47.204;8.582;2023-09-30T12:07:56;23.70;51.20
83098;DHT22;72971;47.204;8.582;2023-09-30T12:13:18;23.70;51.10
83098;DHT22;72971;47.204;8.582;2023-09-30T12:18:21;23.70;51.20
83098;DHT22;72971;47.204;8.582;2023-09-30T12:23:25;23.70;51.20
83098;DHT22;72971;47.204;8.582;2023-09-30T12:28:28;23.70;51.10
83098;DHT22;72971;47.204;8.582;2023-09-30T12:33:32;23.80;51.30
83098;DHT22;72971;47.204;8.582;2023-09-30T12:38:37;23.80;51.10
83098;DHT22;72971;47.204;8.582;2023-09-30T12:43:45;23.80;51.00
83098;DHT22;72971;47.204;8.582;2023-09-30T12:48:47;23.80;51.00
83098;DHT22;72971;47.204;8.582;2023-09-30T12:53:52;23.80;51.00
83098;DHT22;72971;47.204;8.582;2023-09-30T12:59:00;23.80;51.00
83098;DHT22;72971;47.204;8.582;2023-09-30T13:03:59;23.80;51.00
83098;DHT22;72971;47.204;8.582;2023-09-30T13:09:02;23.80;51.00
83098;DHT22;72971;47.204;8.582;2023-09-30T13:14:08;23.90;50.90
83098;DHT22;72971;47.204;8.582;2023-09-30T13:19:11;23.90;50.90
83098;DHT22;72971;47.204;8.582;2023-09-30T13:24:16;23.90;50.90
83098;DHT22;72971;47.204;8.582;2023-09-30T13:29:19;23.90;50.90
83098;DHT22;72971;47.204;8.582;2023-09-30T13:34:21;23.90;50.90
83098;DHT22;72971;47.204;8.582;2023-09-30T13:39:24;23.90;50.90
83098;DHT22;72971;47.204;8.582;2023-09-30T13:44:27;23.90;50.90
83098;DHT22;72971;47.204;8.582;2023-09-30T13:49:29;23.90;51.50
83098;DHT22;72971;47.204;8.582;2023-09-30T13:54:35;23.90;51.00
83098;DHT22;72971;47.204;8.582;2023-09-30T13:59:37;23.90;51.00
83098;DHT22;72971;47.204;8.582;2023-09-30T14:04:40;23.90;51.00
83098;DHT22;72971;47.204;8.582;2023-09-30T14:09:42;23.90;51.00
83098;DHT22;72971;47.204;8.582;2023-09-30T14:14:45;23.90;51.00
83098;DHT22;72971;47.204;8.582;2023-09-30T14:19:48;23.90;51.10
83098;DHT22;72971;47.204;8.582;2023-09-30T14:24:51;23.90;51.20
83098;DHT22;72971;47.204;8.582;2023-09-30T14:29:53;23.90;51.10
83098;DHT22;72971;47.204;8.582;2023-09-30T14:34:57;23.90;51.10
83098;DHT22;72971;47.204;8.582;2023-09-30T14:39:59;23.90;51.20
83098;DHT22;72971;47.204;8.582;2023-09-30T14:45:02;23.90;51.20
83098;DHT22;72971;47.204;8.582;2023-09-30T14:50:09;23.90;51.20
83098;DHT22;72971;47.204;8.582;2023-09-30T14:55:12;23.90;51.20
83098;DHT22;72971;47.204;8.582;2023-09-30T15:00:16;23.80;51.20
83098;DHT22;72971;47.204;8.582;2023-09-30T15:05:19;23.80;51.20
83098;DHT22;72971;47.204;8.582;2023-09-30T15:10:21;23.80;51.30
83098;DHT22;72971;47.204;8.582;2023-09-30T15:15:24;23.80;51.40
83098;DHT22;72971;47.204;8.582;2023-09-30T15:20:26;23.80;51.30
83098;DHT22;72971;47.204;8.582;2023-09-30T15:25:29;23.80;51.30
83098;DHT22;72971;47.204;8.582;2023-09-30T15:30:31;23.80;51.30
83098;DHT22;72971;47.204;8.582;2023-09-30T15:35:34;23.80;51.30
83098;DHT22;72971;47.204;8.582;2023-09-30T15:40:56;23.80;51.40
83098;DHT22;72971;47.204;8.582;2023-09-30T15:45:59;23.80;51.40
83098;DHT22;72971;47.204;8.582;2023-09-30T15:51:03;23.80;51.40
83098;DHT22;72971;47.204;8.582;2023-09-30T15:56:07;23.80;51.40
83098;DHT22;72971;47.204;8.582;2023-09-30T16:01:11;23.80;51.40
83098;DHT22;72971;47.204;8.582;2023-09-30T16:06:14;23.80;51.50
83098;DHT22;72971;47.204;8.582;2023-09-30T16:11:25;23.80;51.50
83098;DHT22;72971;47.204;8.582;2023-09-30T16:16:28;23.80;51.50
83098;DHT22;72971;47.204;8.582;2023-09-30T16:21:31;23.80;51.50
83098;DHT22;72971;47.204;8.582;2023-09-30T16:26:34;23.70;51.50
83098;DHT22;72971;47.204;8.582;2023-09-30T16:31:37;23.80;51.50
83098;DHT22;72971;47.204;8.582;2023-09-30T16:36:39;23.80;51.60
83098;DHT22;72971;47.204;8.582;2023-09-30T16:41:42;23.70;51.60
83098;DHT22;72971;47.204;8.582;2023-09-30T16:46:44;23.80;51.60
83098;DHT22;72971;47.204;8.582;2023-09-30T16:52:06;23.80;51.60
83098;DHT22;72971;47.204;8.582;2023-09-30T16:57:09;23.70;51.60
83098;DHT22;72971;47.204;8.582;2023-09-30T17:02:12;23.70;51.60
83098;DHT22;72971;47.204;8.582;2023-09-30T17:07:16;23.70;51.60
83098;DHT22;72971;47.204;8.582;2023-09-30T17:12:18;23.70;51.60
83098;DHT22;72971;47.204;8.582;2023-09-30T17:17:21;23.70;51.60
83098;DHT22;72971;47.204;8.582;2023-09-30T17:22:43;23.70;51.70
83098;DHT22;72971;47.204;8.582;2023-09-30T17:27:45;23.70;51.60
83098;DHT22;72971;47.204;8.582;2023-09-30T17:32:48;23.70;51.70
83098;DHT22;72971;47.204;8.582;2023-09-30T17:37:50;23.70;51.70
83098;DHT22;72971;47.204;8.582;2023-09-30T17:42:53;23.70;51.70
83098;DHT22;72971;47.204;8.582;2023-09-30T17:47:55;23.70;51.70
83098;DHT22;72971;47.204;8.582;2023-09-30T17:52:58;23.70;51.70
83098;DHT22;72971;47.204;8.582;2023-09-30T17:58:00;23.60;51.20
83098;DHT22;72971;47.204;8.582;2023-09-30T18:03:03;23.70;51.80
83098;DHT22;72971;47.204;8.582;2023-09-30T18:08:06;23.60;51.70
83098;DHT22;72971;47.204;8.582;2023-09-30T18:13:10;23.60;51.70
83098;DHT22;72971;47.204;8.582;2023-09-30T18:18:13;23.60;51.70
83098;DHT22;72971;47.204;8.582;2023-09-30T18:23:16;23.60;51.90
83098;DHT22;72971;47.204;8.582;2023-09-30T18:28:20;23.60;51.80
83098;DHT22;72971;47.204;8.582;2023-09-30T18:33:23;23.60;51.80
83098;DHT22;72971;47.204;8.582;2023-09-30T18:38:26;23.60;51.80
83098;DHT22;72971;47.204;8.582;2023-09-30T18:43:28;23.60;51.80
83098;DHT22;72971;47.204;8.582;2023-09-30T18:48:32;23.60;51.80
83098;DHT22;72971;47.204;8.582;2023-09-30T18:53:36;23.60;51.80
83098;DHT22;72971;47.204;8.582;2023-09-30T18:58:40;23.60;51.90
83098;DHT22;72971;47.204;8.582;2023-09-30T19:03:42;23.60;51.90
83098;DHT22;72971;47.204;8.582;2023-09-30T19:08:45;23.60;51.90
83098;DHT22;72971;47.204;8.582;2023-09-30T19:13:47;23.50;51.90
83098;DHT22;72971;47.204;8.582;2023-09-30T19:18:50;23.50;51.90
83098;DHT22;72971;47.204;8.582;2023-09-30T19:23:52;23.60;52.40
83098;DHT22;72971;47.204;8.582;2023-09-30T19:28:55;23.50;51.90
83098;DHT22;72971;47.204;8.582;2023-09-30T19:33:59;23.60;52.00
83098;DHT22;72971;47.204;8.582;2023-09-30T19:39:03;23.50;51.90
83098;DHT22;72971;47.204;8.582;2023-09-30T19:44:06;23.50;52.00
83098;DHT22;72971;47.204;8.582;2023-09-30T19:49:10;23.50;52.00
83098;DHT22;72971;47.204;8.582;2023-09-30T19:54:13;23.50;52.00
83098;DHT22;72971;47.204;8.582;2023-09-30T19:59:16;23.50;52.00
83098;DHT22;72971;47.204;8.582;2023-09-30T20:04:19;23.50;52.00
83098;DHT22;72971;47.204;8.582;2023-09-30T20:09:24;23.50;52.10
83098;DHT22;72971;47.204;8.582;2023-09-30T20:14:27;23.50;52.00
83098;DHT22;72971;47.204;8.582;2023-09-30T20:19:31;23.50;52.10
83098;DHT22;72971;47.204;8.582;2023-09-30T20:24:35;23.50;52.10
83098;DHT22;72971;47.204;8.582;2023-09-30T20:29:38;23.50;52.00
83098;DHT22;72971;47.204;8.582;2023-09-30T20:34:40;23.50;52.10
83098;DHT22;72971;47.204;8.582;2023-09-30T20:39:43;23.50;52.10
83098;DHT22;72971;47.204;8.582;2023-09-30T20:44:46;23.50;52.10
83098;DHT22;72971;47.204;8.582;2023-09-30T20:49:52;23.50;52.10
83098;DHT22;72971;47.204;8.582;2023-09-30T20:54:55;23.40;52.10
83098;DHT22;72971;47.204;8.582;2023-09-30T20:59:59;23.40;52.10
83098;DHT22;72971;47.204;8.582;2023-09-30T21:05:02;23.50;51.80
83098;DHT22;72971;47.204;8.582;2023-09-30T21:10:06;23.40;52.10
83098;DHT22;72971;47.204;8.582;2023-09-30T21:15:09;23.40;52.10
83098;DHT22;72971;47.204;8.582;2023-09-30T21:20:11;23.40;52.10
83098;DHT22;72971;47.204;8.582;2023-09-30T21:25:14;23.40;52.10
83098;DHT22;72971;47.204;8.582;2023-09-30T21:30:16;23.40;52.10
83098;DHT22;72971;47.204;8.582;2023-09-30T21:35:19;23.40;52.20
83098;DHT22;72971;47.204;8.582;2023-09-30T21:40:23;23.40;52.10
83098;DHT22;72971;47.204;8.582;2023-09-30T21:45:27;23.40;52.10
83098;DHT22;72971;47.204;8.582;2023-09-30T21:50:29;23.40;52.10
83098;DHT22;72971;47.204;8.582;2023-09-30T21:55:34;23.40;52.10
83098;DHT22;72971;47.204;8.582;2023-09-30T22:00:37;23.40;52.20
83098;DHT22;72971;47.204;8.582;2023-09-30T22:05:40;23.40;52.20
83098;DHT22;72971;47.204;8.582;2023-09-30T22:10:44;23.40;52.10
83098;DHT22;72971;47.204;8.582;2023-09-30T22:15:46;23.40;52.10
83098;DHT22;72971;47.204;8.582;2023-09-30T22:20:49;23.40;52.10
83098;DHT22;72971;47.204;8.582;2023-09-30T22:25:53;23.40;52.10
83098;DHT22;72971;47.204;8.582;2023-09-30T22:30:56;23.40;52.10
83098;DHT22;72971;47.204;8.582;2023-09-30T22:36:00;23.40;52.10
83098;DHT22;72971;47.204;8.582;2023-09-30T22:41:02;23.40;52.10
83098;DHT22;72971;47.204;8.582;2023-09-30T22:46:06;23.40;52.20
83098;DHT22;72971;47.204;8.582;2023-09-30T22:51:10;23.40;52.20
83098;DHT22;72971;47.204;8.582;2023-09-30T22:56:15;23.40;52.20
83098;DHT22;72971;47.204;8.582;2023-09-30T23:01:23;23.30;52.20
83098;DHT22;72971;47.204;8.582;2023-09-30T23:06:25;23.40;52.10
83098;DHT22;72971;47.204;8.582;2023-09-30T23:11:28;23.40;52.10
83098;DHT22;72971;47.204;8.582;2023-09-30T23:16:32;23.40;52.10
83098;DHT22;72971;47.204;8.582;2023-09-30T23:21:35;23.40;52.20
83098;DHT22;72971;47.204;8.582;2023-09-30T23:26:38;23.30;52.20
83098;DHT22;72971;47.204;8.582;2023-09-30T23:31:41;23.40;52.20
83098;DHT22;72971;47.204;8.582;2023-09-30T23:36:45;23.40;52.20
83098;DHT22;72971;47.204;8.582;2023-09-30T23:41:49;23.30;52.20
83098;DHT22;72971;47.204;8.582;2023-09-30T23:46:51;23.30;52.20
83098;DHT22;72971;47.204;8.582;2023-09-30T23:51:55;23.30;52.20
83098;DHT22;72971;47.204;8.582;2023-09-30T23:56:57;23.30;52.20
